sensor_id;sensor_type;location;lat;lon;timestamp;P1;durP1;ratioP1;P2;durP2;ratioP2
14849;SDS011;7517;48.400;11.770;2023-07-13T00:02:21;4.47;;;3.17;;
14849;SDS011;7517;48.400;11.770;2023-07-13T00:04:48;4.17;;;2.97;;
14849;SDS011;7517;48.400;11.770;2023-07-13T00:07:15;3.47;;;3.17;;
14849;SDS011;7517;48.400;11.770;2023-07-13T00:09:45;4.00;;;3.47;;
14849;SDS011;7517;48.400;11.770;2023-07-13T00:12:24;3.60;;;3.30;;
14849;SDS011;7517;48.400;11.770;2023-07-13T00:14:55;3.43;;;3.13;;
14849;SDS011;7517;48.400;11.770;2023-07-13T00:17:25;3.83;;;3.10;;
14849;SDS011;7517;48.400;11.770;2023-07-13T00:19:52;3.30;;;3.00;;
14849;SDS011;7517;48.400;11.770;2023-07-13T00:22:20;7.33;;;3.47;;
14849;SDS011;7517;48.400;11.770;2023-07-13T00:24:49;2.80;;;2.60;;
14849;SDS011;7517;48.400;11.770;2023-07-13T00:27:16;3.00;;;2.80;;
14849;SDS011;7517;48.400;11.770;2023-07-13T00:29:46;3.07;;;2.70;;
14849;SDS011;7517;48.400;11.770;2023-07-13T00:32:13;3.40;;;3.00;;
14849;SDS011;7517;48.400;11.770;2023-07-13T00:34:40;3.40;;;3.10;;
14849;SDS011;7517;48.400;11.770;2023-07-13T00:37:08;3.20;;;2.97;;
14849;SDS011;7517;48.400;11.770;2023-07-13T00:39:36;2.80;;;2.60;;
14849;SDS011;7517;48.400;11.770;2023-07-13T00:42:04;2.87;;;2.67;;
14849;SDS011;7517;48.400;11.770;2023-07-13T00:44:31;3.30;;;2.60;;
14849;SDS011;7517;48.400;11.770;2023-07-13T00:47:01;3.17;;;2.50;;
14849;SDS011;7517;48.400;11.770;2023-07-13T00:49:29;2.97;;;2.37;;
14849;SDS011;7517;48.400;11.770;2023-07-13T00:52:06;3.10;;;2.53;;
14849;SDS011;7517;48.400;11.770;2023-07-13T00:54:36;2.77;;;2.37;;
14849;SDS011;7517;48.400;11.770;2023-07-13T00:57:11;4.07;;;2.53;;
14849;SDS011;7517;48.400;11.770;2023-07-13T00:59:44;2.33;;;2.23;;
14849;SDS011;7517;48.400;11.770;2023-07-13T01:02:21;2.37;;;2.27;;
14849;SDS011;7517;48.400;11.770;2023-07-13T01:04:50;3.00;;;2.03;;
14849;SDS011;7517;48.400;11.770;2023-07-13T01:07:17;2.40;;;2.20;;
14849;SDS011;7517;48.400;11.770;2023-07-13T01:09:45;3.43;;;2.00;;
14849;SDS011;7517;48.400;11.770;2023-07-13T01:12:12;3.70;;;2.33;;
14849;SDS011;7517;48.400;11.770;2023-07-13T01:14:39;4.70;;;2.10;;
14849;SDS011;7517;48.400;11.770;2023-07-13T01:17:08;2.50;;;2.10;;
14849;SDS011;7517;48.400;11.770;2023-07-13T01:19:39;3.00;;;2.30;;
14849;SDS011;7517;48.400;11.770;2023-07-13T01:22:11;2.43;;;2.00;;
14849;SDS011;7517;48.400;11.770;2023-07-13T01:24:42;2.00;;;1.90;;
14849;SDS011;7517;48.400;11.770;2023-07-13T01:27:13;2.40;;;2.20;;
14849;SDS011;7517;48.400;11.770;2023-07-13T01:29:44;4.00;;;2.50;;
14849;SDS011;7517;48.400;11.770;2023-07-13T01:32:13;2.20;;;1.80;;
14849;SDS011;7517;48.400;11.770;2023-07-13T01:34:47;1.93;;;1.83;;
14849;SDS011;7517;48.400;11.770;2023-07-13T01:37:17;2.80;;;2.00;;
14849;SDS011;7517;48.400;11.770;2023-07-13T01:39:44;3.63;;;2.10;;
14849;SDS011;7517;48.400;11.770;2023-07-13T01:42:11;2.10;;;1.90;;
14849;SDS011;7517;48.400;11.770;2023-07-13T01:44:39;2.40;;;2.20;;
14849;SDS011;7517;48.400;11.770;2023-07-13T01:47:06;3.27;;;2.97;;
14849;SDS011;7517;48.400;11.770;2023-07-13T01:49:36;2.77;;;2.03;;
14849;SDS011;7517;48.400;11.770;2023-07-13T01:52:04;2.40;;;2.20;;
14849;SDS011;7517;48.400;11.770;2023-07-13T01:54:33;2.33;;;2.10;;
14849;SDS011;7517;48.400;11.770;2023-07-13T01:57:00;2.20;;;1.80;;
14849;SDS011;7517;48.400;11.770;2023-07-13T01:59:28;2.23;;;2.13;;
14849;SDS011;7517;48.400;11.770;2023-07-13T02:01:55;2.47;;;2.10;;
14849;SDS011;7517;48.400;11.770;2023-07-13T02:04:22;3.03;;;2.13;;
14849;SDS011;7517;48.400;11.770;2023-07-13T02:06:50;2.47;;;1.97;;
14849;SDS011;7517;48.400;11.770;2023-07-13T02:09:17;2.63;;;2.03;;
14849;SDS011;7517;48.400;11.770;2023-07-13T02:11:46;2.40;;;2.20;;
14849;SDS011;7517;48.400;11.770;2023-07-13T02:14:13;2.23;;;2.03;;
14849;SDS011;7517;48.400;11.770;2023-07-13T02:16:43;2.50;;;2.30;;
14849;SDS011;7517;48.400;11.770;2023-07-13T02:19:10;2.30;;;2.10;;
14849;SDS011;7517;48.400;11.770;2023-07-13T02:21:38;2.30;;;2.10;;
14849;SDS011;7517;48.400;11.770;2023-07-13T02:24:05;2.20;;;2.00;;
14849;SDS011;7517;48.400;11.770;2023-07-13T02:26:32;2.40;;;2.20;;
14849;SDS011;7517;48.400;11.770;2023-07-13T02:29:01;3.67;;;2.23;;
14849;SDS011;7517;48.400;11.770;2023-07-13T02:31:28;2.30;;;2.10;;
14849;SDS011;7517;48.400;11.770;2023-07-13T02:34:02;2.17;;;2.00;;
14849;SDS011;7517;48.400;11.770;2023-07-13T02:36:30;2.20;;;2.10;;
14849;SDS011;7517;48.400;11.770;2023-07-13T02:39:00;2.83;;;2.00;;
14849;SDS011;7517;48.400;11.770;2023-07-13T02:41:32;2.20;;;2.00;;
14849;SDS011;7517;48.400;11.770;2023-07-13T02:43:59;2.13;;;2.00;;
14849;SDS011;7517;48.400;11.770;2023-07-13T02:46:29;2.27;;;2.07;;
14849;SDS011;7517;48.400;11.770;2023-07-13T02:48:56;2.47;;;2.10;;
14849;SDS011;7517;48.400;11.770;2023-07-13T02:51:24;3.00;;;1.80;;
14849;SDS011;7517;48.400;11.770;2023-07-13T02:53:51;3.37;;;1.90;;
14849;SDS011;7517;48.400;11.770;2023-07-13T02:56:18;3.07;;;2.10;;
14849;SDS011;7517;48.400;11.770;2023-07-13T02:58:50;1.97;;;1.80;;
14849;SDS011;7517;48.400;11.770;2023-07-13T03:01:20;3.27;;;2.03;;
14849;SDS011;7517;48.400;11.770;2023-07-13T03:03:49;3.23;;;2.30;;
14849;SDS011;7517;48.400;11.770;2023-07-13T03:06:17;2.10;;;1.90;;
14849;SDS011;7517;48.400;11.770;2023-07-13T03:08:46;2.37;;;2.10;;
14849;SDS011;7517;48.400;11.770;2023-07-13T03:11:16;2.17;;;1.97;;
14849;SDS011;7517;48.400;11.770;2023-07-13T03:13:46;2.33;;;1.90;;
14849;SDS011;7517;48.400;11.770;2023-07-13T03:16:15;3.00;;;2.27;;
14849;SDS011;7517;48.400;11.770;2023-07-13T03:18:45;3.93;;;2.50;;
14849;SDS011;7517;48.400;11.770;2023-07-13T03:21:12;3.93;;;2.10;;
14849;SDS011;7517;48.400;11.770;2023-07-13T03:23:40;2.77;;;2.27;;
14849;SDS011;7517;48.400;11.770;2023-07-13T03:26:10;2.47;;;2.27;;
14849;SDS011;7517;48.400;11.770;2023-07-13T03:28:40;2.77;;;2.57;;
14849;SDS011;7517;48.400;11.770;2023-07-13T03:31:09;2.40;;;2.20;;
14849;SDS011;7517;48.400;11.770;2023-07-13T03:33:39;5.63;;;2.60;;
14849;SDS011;7517;48.400;11.770;2023-07-13T03:36:10;2.93;;;2.30;;
14849;SDS011;7517;48.400;11.770;2023-07-13T03:38:41;2.90;;;2.30;;
14849;SDS011;7517;48.400;11.770;2023-07-13T03:41:08;3.40;;;2.67;;
14849;SDS011;7517;48.400;11.770;2023-07-13T03:43:36;3.67;;;2.80;;
14849;SDS011;7517;48.400;11.770;2023-07-13T03:46:03;2.93;;;2.67;;
14849;SDS011;7517;48.400;11.770;2023-07-13T03:48:30;4.13;;;3.00;;
14849;SDS011;7517;48.400;11.770;2023-07-13T03:50:57;3.20;;;2.77;;
14849;SDS011;7517;48.400;11.770;2023-07-13T03:53:26;4.67;;;2.40;;
14849;SDS011;7517;48.400;11.770;2023-07-13T03:55:53;3.07;;;2.67;;
14849;SDS011;7517;48.400;11.770;2023-07-13T03:58:28;4.50;;;2.97;;
14849;SDS011;7517;48.400;11.770;2023-07-13T04:00:59;8.23;;;3.10;;
14849;SDS011;7517;48.400;11.770;2023-07-13T04:03:27;3.10;;;2.80;;
14849;SDS011;7517;48.400;11.770;2023-07-13T04:05:58;3.80;;;3.00;;
14849;SDS011;7517;48.400;11.770;2023-07-13T04:08:28;7.00;;;2.87;;
14849;SDS011;7517;48.400;11.770;2023-07-13T04:10:57;3.67;;;2.90;;
14849;SDS011;7517;48.400;11.770;2023-07-13T04:13:25;6.10;;;2.83;;
14849;SDS011;7517;48.400;11.770;2023-07-13T04:15:53;3.47;;;3.17;;
14849;SDS011;7517;48.400;11.770;2023-07-13T04:18:21;4.17;;;2.83;;
14849;SDS011;7517;48.400;11.770;2023-07-13T04:20:49;4.40;;;3.20;;
14849;SDS011;7517;48.400;11.770;2023-07-13T04:23:17;3.73;;;3.00;;
14849;SDS011;7517;48.400;11.770;2023-07-13T04:25:46;4.17;;;2.90;;
14849;SDS011;7517;48.400;11.770;2023-07-13T04:28:17;3.50;;;3.30;;
14849;SDS011;7517;48.400;11.770;2023-07-13T04:30:46;3.47;;;3.17;;
14849;SDS011;7517;48.400;11.770;2023-07-13T04:33:13;3.33;;;2.90;;
14849;SDS011;7517;48.400;11.770;2023-07-13T04:35:41;3.33;;;3.03;;
14849;SDS011;7517;48.400;11.770;2023-07-13T04:38:11;3.10;;;2.90;;
14849;SDS011;7517;48.400;11.770;2023-07-13T04:40:40;3.23;;;2.77;;
14849;SDS011;7517;48.400;11.770;2023-07-13T04:43:13;3.23;;;3.03;;
14849;SDS011;7517;48.400;11.770;2023-07-13T04:45:40;4.60;;;3.20;;
14849;SDS011;7517;48.400;11.770;2023-07-13T04:48:08;3.10;;;2.90;;
14849;SDS011;7517;48.400;11.770;2023-07-13T04:50:35;3.57;;;2.77;;
14849;SDS011;7517;48.400;11.770;2023-07-13T04:53:03;3.27;;;2.97;;
14849;SDS011;7517;48.400;11.770;2023-07-13T04:55:31;3.30;;;3.00;;
14849;SDS011;7517;48.400;11.770;2023-07-13T04:57:59;5.63;;;3.50;;
14849;SDS011;7517;48.400;11.770;2023-07-13T05:00:29;4.00;;;2.83;;
14849;SDS011;7517;48.400;11.770;2023-07-13T05:02:57;3.27;;;3.07;;
14849;SDS011;7517;48.400;11.770;2023-07-13T05:05:25;2.90;;;2.70;;
14849;SDS011;7517;48.400;11.770;2023-07-13T05:07:53;4.40;;;3.23;;
14849;SDS011;7517;48.400;11.770;2023-07-13T05:10:20;3.53;;;2.70;;
14849;SDS011;7517;48.400;11.770;2023-07-13T05:12:49;3.23;;;2.93;;
14849;SDS011;7517;48.400;11.770;2023-07-13T05:15:17;3.37;;;3.07;;
14849;SDS011;7517;48.400;11.770;2023-07-13T05:17:52;3.67;;;2.80;;
14849;SDS011;7517;48.400;11.770;2023-07-13T05:20:19;3.40;;;3.10;;
14849;SDS011;7517;48.400;11.770;2023-07-13T05:22:47;4.97;;;3.13;;
14849;SDS011;7517;48.400;11.770;2023-07-13T05:25:15;4.20;;;3.00;;
14849;SDS011;7517;48.400;11.770;2023-07-13T05:27:43;5.10;;;2.77;;
14849;SDS011;7517;48.400;11.770;2023-07-13T05:30:12;3.10;;;2.70;;
14849;SDS011;7517;48.400;11.770;2023-07-13T05:32:40;3.10;;;2.90;;
14849;SDS011;7517;48.400;11.770;2023-07-13T05:35:09;2.83;;;2.63;;
14849;SDS011;7517;48.400;11.770;2023-07-13T05:37:36;3.30;;;3.00;;
14849;SDS011;7517;48.400;11.770;2023-07-13T05:40:04;3.03;;;2.50;;
14849;SDS011;7517;48.400;11.770;2023-07-13T05:42:33;4.80;;;2.77;;
14849;SDS011;7517;48.400;11.770;2023-07-13T05:45:01;3.63;;;2.47;;
14849;SDS011;7517;48.400;11.770;2023-07-13T05:47:30;3.30;;;2.60;;
14849;SDS011;7517;48.400;11.770;2023-07-13T05:49:57;2.90;;;2.70;;
14849;SDS011;7517;48.400;11.770;2023-07-13T05:52:26;3.57;;;2.40;;
14849;SDS011;7517;48.400;11.770;2023-07-13T05:54:53;3.00;;;2.57;;
14849;SDS011;7517;48.400;11.770;2023-07-13T05:57:20;2.53;;;2.33;;
14849;SDS011;7517;48.400;11.770;2023-07-13T05:59:47;2.70;;;2.50;;
14849;SDS011;7517;48.400;11.770;2023-07-13T06:02:15;2.47;;;2.20;;
14849;SDS011;7517;48.400;11.770;2023-07-13T06:04:42;2.77;;;2.57;;
14849;SDS011;7517;48.400;11.770;2023-07-13T06:07:09;2.80;;;2.20;;
14849;SDS011;7517;48.400;11.770;2023-07-13T06:09:38;3.47;;;2.23;;
14849;SDS011;7517;48.400;11.770;2023-07-13T06:12:06;3.77;;;2.30;;
14849;SDS011;7517;48.400;11.770;2023-07-13T06:14:34;3.37;;;2.60;;
14849;SDS011;7517;48.400;11.770;2023-07-13T06:17:01;5.20;;;2.50;;
14849;SDS011;7517;48.400;11.770;2023-07-13T06:19:29;2.30;;;2.10;;
14849;SDS011;7517;48.400;11.770;2023-07-13T06:21:57;4.00;;;2.50;;
14849;SDS011;7517;48.400;11.770;2023-07-13T06:24:24;2.87;;;2.50;;
14849;SDS011;7517;48.400;11.770;2023-07-13T06:26:53;2.37;;;1.77;;
14849;SDS011;7517;48.400;11.770;2023-07-13T06:29:21;1.90;;;1.80;;
14849;SDS011;7517;48.400;11.770;2023-07-13T06:31:48;2.23;;;1.70;;
14849;SDS011;7517;48.400;11.770;2023-07-13T06:34:15;2.00;;;1.90;;
14849;SDS011;7517;48.400;11.770;2023-07-13T06:36:43;2.90;;;1.97;;
14849;SDS011;7517;48.400;11.770;2023-07-13T06:39:11;2.50;;;2.30;;
14849;SDS011;7517;48.400;11.770;2023-07-13T06:41:38;2.20;;;1.80;;
14849;SDS011;7517;48.400;11.770;2023-07-13T06:44:07;3.17;;;1.67;;
14849;SDS011;7517;48.400;11.770;2023-07-13T06:46:34;2.77;;;1.67;;
14849;SDS011;7517;48.400;11.770;2023-07-13T06:49:02;1.90;;;1.63;;
14849;SDS011;7517;48.400;11.770;2023-07-13T06:51:29;3.13;;;2.00;;
14849;SDS011;7517;48.400;11.770;2023-07-13T06:53:56;2.33;;;1.50;;
14849;SDS011;7517;48.400;11.770;2023-07-13T06:56:24;3.33;;;1.37;;
14849;SDS011;7517;48.400;11.770;2023-07-13T06:58:51;1.90;;;1.53;;
14849;SDS011;7517;48.400;11.770;2023-07-13T07:01:20;3.43;;;1.67;;
14849;SDS011;7517;48.400;11.770;2023-07-13T07:03:47;2.27;;;1.57;;
14849;SDS011;7517;48.400;11.770;2023-07-13T07:06:15;1.57;;;1.47;;
14849;SDS011;7517;48.400;11.770;2023-07-13T07:08:48;1.70;;;1.30;;
14849;SDS011;7517;48.400;11.770;2023-07-13T07:11:17;2.43;;;1.20;;
14849;SDS011;7517;48.400;11.770;2023-07-13T07:13:47;1.90;;;1.67;;
14849;SDS011;7517;48.400;11.770;2023-07-13T07:16:15;4.30;;;1.40;;
14849;SDS011;7517;48.400;11.770;2023-07-13T07:18:45;3.20;;;1.57;;
14849;SDS011;7517;48.400;11.770;2023-07-13T07:21:13;3.20;;;1.60;;
14849;SDS011;7517;48.400;11.770;2023-07-13T07:23:41;2.43;;;1.20;;
14849;SDS011;7517;48.400;11.770;2023-07-13T07:26:09;1.93;;;1.60;;
14849;SDS011;7517;48.400;11.770;2023-07-13T07:28:36;2.50;;;1.30;;
14849;SDS011;7517;48.400;11.770;2023-07-13T07:31:04;2.63;;;1.43;;
14849;SDS011;7517;48.400;11.770;2023-07-13T07:33:32;2.27;;;1.43;;
14849;SDS011;7517;48.400;11.770;2023-07-13T07:36:01;2.37;;;1.23;;
14849;SDS011;7517;48.400;11.770;2023-07-13T07:38:28;1.60;;;1.50;;
14849;SDS011;7517;48.400;11.770;2023-07-13T07:40:56;3.90;;;1.50;;
14849;SDS011;7517;48.400;11.770;2023-07-13T07:43:23;1.30;;;1.20;;
14849;SDS011;7517;48.400;11.770;2023-07-13T07:45:50;1.93;;;1.30;;
14849;SDS011;7517;48.400;11.770;2023-07-13T07:48:17;2.10;;;1.30;;
14849;SDS011;7517;48.400;11.770;2023-07-13T07:50:55;4.13;;;1.83;;
14849;SDS011;7517;48.400;11.770;2023-07-13T07:53:24;2.50;;;1.30;;
14849;SDS011;7517;48.400;11.770;2023-07-13T07:55:51;3.70;;;1.20;;
14849;SDS011;7517;48.400;11.770;2023-07-13T07:58:18;1.47;;;1.17;;
14849;SDS011;7517;48.400;11.770;2023-07-13T08:00:46;2.03;;;1.60;;
14849;SDS011;7517;48.400;11.770;2023-07-13T08:03:13;1.57;;;1.30;;
14849;SDS011;7517;48.400;11.770;2023-07-13T08:05:40;2.17;;;1.33;;
14849;SDS011;7517;48.400;11.770;2023-07-13T08:08:08;2.17;;;1.47;;
14849;SDS011;7517;48.400;11.770;2023-07-13T08:10:37;1.37;;;1.20;;
14849;SDS011;7517;48.400;11.770;2023-07-13T08:13:04;1.57;;;1.47;;
14849;SDS011;7517;48.400;11.770;2023-07-13T08:15:31;1.87;;;1.30;;
14849;SDS011;7517;48.400;11.770;2023-07-13T08:17:59;1.50;;;1.40;;
14849;SDS011;7517;48.400;11.770;2023-07-13T08:20:26;3.27;;;1.70;;
14849;SDS011;7517;48.400;11.770;2023-07-13T08:22:54;2.57;;;1.20;;
14849;SDS011;7517;48.400;11.770;2023-07-13T08:25:21;2.13;;;1.40;;
14849;SDS011;7517;48.400;11.770;2023-07-13T08:27:50;1.30;;;1.20;;
14849;SDS011;7517;48.400;11.770;2023-07-13T08:30:18;1.27;;;1.00;;
14849;SDS011;7517;48.400;11.770;2023-07-13T08:32:45;3.80;;;1.50;;
14849;SDS011;7517;48.400;11.770;2023-07-13T08:35:13;3.53;;;1.53;;
14849;SDS011;7517;48.400;11.770;2023-07-13T08:37:42;1.17;;;1.07;;
14849;SDS011;7517;48.400;11.770;2023-07-13T08:40:09;2.20;;;1.33;;
14849;SDS011;7517;48.400;11.770;2023-07-13T08:42:39;1.30;;;1.20;;
14849;SDS011;7517;48.400;11.770;2023-07-13T08:45:14;3.33;;;1.13;;
14849;SDS011;7517;48.400;11.770;2023-07-13T08:47:48;1.73;;;1.37;;
14849;SDS011;7517;48.400;11.770;2023-07-13T08:50:22;1.00;;;1.00;;
14849;SDS011;7517;48.400;11.770;2023-07-13T08:52:57;1.30;;;1.20;;
14849;SDS011;7517;48.400;11.770;2023-07-13T08:55:27;1.13;;;0.80;;
14849;SDS011;7517;48.400;11.770;2023-07-13T08:58:02;1.97;;;0.80;;
14849;SDS011;7517;48.400;11.770;2023-07-13T09:00:40;2.30;;;1.10;;
14849;SDS011;7517;48.400;11.770;2023-07-13T09:03:19;1.77;;;1.00;;
14849;SDS011;7517;48.400;11.770;2023-07-13T09:05:51;1.23;;;1.13;;
14849;SDS011;7517;48.400;11.770;2023-07-13T09:08:31;1.50;;;0.97;;
14849;SDS011;7517;48.400;11.770;2023-07-13T09:11:14;0.90;;;0.90;;
14849;SDS011;7517;48.400;11.770;2023-07-13T09:14:00;1.50;;;0.90;;
14849;SDS011;7517;48.400;11.770;2023-07-13T09:16:53;1.43;;;1.30;;
14849;SDS011;7517;48.400;11.770;2023-07-13T09:19:22;1.60;;;1.07;;
14849;SDS011;7517;48.400;11.770;2023-07-13T09:21:57;2.10;;;1.53;;
14849;SDS011;7517;48.400;11.770;2023-07-13T09:24:35;1.93;;;1.27;;
14849;SDS011;7517;48.400;11.770;2023-07-13T09:27:09;1.57;;;1.33;;
14849;SDS011;7517;48.400;11.770;2023-07-13T09:29:45;1.30;;;1.20;;
14849;SDS011;7517;48.400;11.770;2023-07-13T09:32:21;1.80;;;1.27;;
14849;SDS011;7517;48.400;11.770;2023-07-13T09:34:52;2.60;;;1.43;;
14849;SDS011;7517;48.400;11.770;2023-07-13T09:37:20;1.30;;;1.20;;
14849;SDS011;7517;48.400;11.770;2023-07-13T09:39:56;1.30;;;1.20;;
14849;SDS011;7517;48.400;11.770;2023-07-13T09:42:29;1.53;;;1.33;;
14849;SDS011;7517;48.400;11.770;2023-07-13T09:45:01;1.30;;;1.20;;
14849;SDS011;7517;48.400;11.770;2023-07-13T09:47:33;1.83;;;1.03;;
14849;SDS011;7517;48.400;11.770;2023-07-13T09:50:15;2.13;;;1.10;;
14849;SDS011;7517;48.400;11.770;2023-07-13T09:52:44;3.60;;;1.10;;
14849;SDS011;7517;48.400;11.770;2023-07-13T09:55:25;1.57;;;1.27;;
14849;SDS011;7517;48.400;11.770;2023-07-13T09:57:57;1.40;;;1.30;;
14849;SDS011;7517;48.400;11.770;2023-07-13T10:00:30;1.63;;;1.30;;
14849;SDS011;7517;48.400;11.770;2023-07-13T10:03:01;1.53;;;1.10;;
14849;SDS011;7517;48.400;11.770;2023-07-13T10:05:38;2.93;;;1.00;;
14849;SDS011;7517;48.400;11.770;2023-07-13T10:08:15;1.27;;;1.17;;
14849;SDS011;7517;48.400;11.770;2023-07-13T10:10:59;1.30;;;0.97;;
14849;SDS011;7517;48.400;11.770;2023-07-13T10:13:35;1.87;;;1.20;;
14849;SDS011;7517;48.400;11.770;2023-07-13T10:16:07;1.27;;;1.10;;
14849;SDS011;7517;48.400;11.770;2023-07-13T10:18:39;1.10;;;0.97;;
14849;SDS011;7517;48.400;11.770;2023-07-13T10:21:13;2.20;;;0.90;;
14849;SDS011;7517;48.400;11.770;2023-07-13T10:23:43;2.40;;;1.03;;
14849;SDS011;7517;48.400;11.770;2023-07-13T10:26:16;1.23;;;0.93;;
14849;SDS011;7517;48.400;11.770;2023-07-13T10:28:52;1.77;;;1.10;;
14849;SDS011;7517;48.400;11.770;2023-07-13T10:31:25;1.13;;;0.90;;
14849;SDS011;7517;48.400;11.770;2023-07-13T10:33:54;2.53;;;1.07;;
14849;SDS011;7517;48.400;11.770;2023-07-13T10:36:29;1.10;;;1.10;;
14849;SDS011;7517;48.400;11.770;2023-07-13T10:39:04;1.63;;;1.00;;
14849;SDS011;7517;48.400;11.770;2023-07-13T10:41:34;1.20;;;1.00;;
14849;SDS011;7517;48.400;11.770;2023-07-13T10:44:07;2.47;;;1.07;;
14849;SDS011;7517;48.400;11.770;2023-07-13T10:46:50;1.70;;;0.90;;
14849;SDS011;7517;48.400;11.770;2023-07-13T10:49:23;1.77;;;1.13;;
14849;SDS011;7517;48.400;11.770;2023-07-13T10:51:53;1.10;;;1.00;;
14849;SDS011;7517;48.400;11.770;2023-07-13T10:54:20;1.90;;;1.10;;
14849;SDS011;7517;48.400;11.770;2023-07-13T10:57:08;2.73;;;0.90;;
14849;SDS011;7517;48.400;11.770;2023-07-13T10:59:45;1.73;;;1.00;;
14849;SDS011;7517;48.400;11.770;2023-07-13T11:02:21;0.93;;;0.93;;
14849;SDS011;7517;48.400;11.770;2023-07-13T11:04:55;1.53;;;1.33;;
14849;SDS011;7517;48.400;11.770;2023-07-13T11:07:24;1.00;;;0.90;;
14849;SDS011;7517;48.400;11.770;2023-07-13T11:09:55;1.60;;;1.00;;
14849;SDS011;7517;48.400;11.770;2023-07-13T11:12:29;1.13;;;1.03;;
14849;SDS011;7517;48.400;11.770;2023-07-13T11:15:30;2.27;;;0.90;;
14849;SDS011;7517;48.400;11.770;2023-07-13T11:18:20;1.50;;;0.93;;
14849;SDS011;7517;48.400;11.770;2023-07-13T11:20:51;0.93;;;0.83;;
14849;SDS011;7517;48.400;11.770;2023-07-13T11:23:41;1.03;;;0.90;;
14849;SDS011;7517;48.400;11.770;2023-07-13T11:29:07;1.17;;;1.00;;
14849;SDS011;7517;48.400;11.770;2023-07-13T11:31:42;2.60;;;0.83;;
14849;SDS011;7517;48.400;11.770;2023-07-13T11:34:27;2.53;;;0.90;;
14849;SDS011;7517;48.400;11.770;2023-07-13T11:37:03;1.00;;;0.90;;
14849;SDS011;7517;48.400;11.770;2023-07-13T11:39:38;2.27;;;1.10;;
14849;SDS011;7517;48.400;11.770;2023-07-13T11:42:11;1.20;;;1.10;;
14849;SDS011;7517;48.400;11.770;2023-07-13T11:44:41;2.40;;;1.20;;
14849;SDS011;7517;48.400;11.770;2023-07-13T11:47:14;1.20;;;0.83;;
14849;SDS011;7517;48.400;11.770;2023-07-13T11:49:48;2.13;;;0.90;;
14849;SDS011;7517;48.400;11.770;2023-07-13T11:52:21;0.73;;;0.73;;
14849;SDS011;7517;48.400;11.770;2023-07-13T11:54:54;0.97;;;0.87;;
14849;SDS011;7517;48.400;11.770;2023-07-13T11:57:24;1.53;;;0.90;;
14849;SDS011;7517;48.400;11.770;2023-07-13T11:59:56;1.20;;;1.00;;
14849;SDS011;7517;48.400;11.770;2023-07-13T12:02:28;1.90;;;1.10;;
14849;SDS011;7517;48.400;11.770;2023-07-13T12:04:59;2.73;;;1.20;;
14849;SDS011;7517;48.400;11.770;2023-07-13T12:07:32;1.60;;;1.10;;
14849;SDS011;7517;48.400;11.770;2023-07-13T12:10:00;2.40;;;1.00;;
14849;SDS011;7517;48.400;11.770;2023-07-13T12:12:29;1.20;;;1.00;;
14849;SDS011;7517;48.400;11.770;2023-07-13T12:14:57;3.10;;;1.00;;
14849;SDS011;7517;48.400;11.770;2023-07-13T12:17:24;3.63;;;0.90;;
14849;SDS011;7517;48.400;11.770;2023-07-13T12:19:54;2.07;;;0.77;;
14849;SDS011;7517;48.400;11.770;2023-07-13T12:22:21;2.13;;;0.90;;
14849;SDS011;7517;48.400;11.770;2023-07-13T12:24:50;0.97;;;0.87;;
14849;SDS011;7517;48.400;11.770;2023-07-13T12:27:20;1.00;;;0.90;;
14849;SDS011;7517;48.400;11.770;2023-07-13T12:29:51;2.33;;;1.10;;
14849;SDS011;7517;48.400;11.770;2023-07-13T12:32:25;1.23;;;0.80;;
14849;SDS011;7517;48.400;11.770;2023-07-13T12:34:57;1.70;;;0.77;;
14849;SDS011;7517;48.400;11.770;2023-07-13T12:37:41;0.83;;;0.60;;
14849;SDS011;7517;48.400;11.770;2023-07-13T12:40:12;1.30;;;1.00;;
14849;SDS011;7517;48.400;11.770;2023-07-13T12:42:45;1.23;;;0.73;;
14849;SDS011;7517;48.400;11.770;2023-07-13T12:45:16;1.27;;;0.73;;
14849;SDS011;7517;48.400;11.770;2023-07-13T12:47:49;0.60;;;0.60;;
14849;SDS011;7517;48.400;11.770;2023-07-13T12:50:27;0.70;;;0.70;;
14849;SDS011;7517;48.400;11.770;2023-07-13T12:53:01;1.27;;;0.83;;
14849;SDS011;7517;48.400;11.770;2023-07-13T12:55:41;1.13;;;0.87;;
14849;SDS011;7517;48.400;11.770;2023-07-13T12:58:14;1.20;;;1.10;;
14849;SDS011;7517;48.400;11.770;2023-07-13T13:00:50;1.03;;;0.60;;
14849;SDS011;7517;48.400;11.770;2023-07-13T13:03:24;1.43;;;0.90;;
14849;SDS011;7517;48.400;11.770;2023-07-13T13:05:58;1.23;;;0.90;;
14849;SDS011;7517;48.400;11.770;2023-07-13T13:08:29;1.47;;;0.93;;
14849;SDS011;7517;48.400;11.770;2023-07-13T13:11:02;0.97;;;0.70;;
14849;SDS011;7517;48.400;11.770;2023-07-13T13:13:29;0.70;;;0.70;;
14849;SDS011;7517;48.400;11.770;2023-07-13T13:16:01;0.80;;;0.80;;
14849;SDS011;7517;48.400;11.770;2023-07-13T13:18:31;1.07;;;0.97;;
14849;SDS011;7517;48.400;11.770;2023-07-13T13:20:58;2.05;;;0.80;;
14849;SDS011;7517;48.400;11.770;2023-07-13T13:23:26;0.80;;;0.67;;
14849;SDS011;7517;48.400;11.770;2023-07-13T13:25:53;0.87;;;0.83;;
14849;SDS011;7517;48.400;11.770;2023-07-13T13:28:22;1.73;;;1.13;;
14849;SDS011;7517;48.400;11.770;2023-07-13T13:30:50;1.70;;;1.00;;
14849;SDS011;7517;48.400;11.770;2023-07-13T13:33:17;2.80;;;0.70;;
14849;SDS011;7517;48.400;11.770;2023-07-13T13:35:48;1.55;;;1.00;;
14849;SDS011;7517;48.400;11.770;2023-07-13T13:38:16;0.80;;;0.80;;
14849;SDS011;7517;48.400;11.770;2023-07-13T13:40:47;1.33;;;0.80;;
14849;SDS011;7517;48.400;11.770;2023-07-13T13:43:15;0.75;;;0.75;;
14849;SDS011;7517;48.400;11.770;2023-07-13T13:45:45;0.90;;;0.80;;
14849;SDS011;7517;48.400;11.770;2023-07-13T13:48:14;1.95;;;0.80;;
14849;SDS011;7517;48.400;11.770;2023-07-13T13:50:44;1.40;;;0.90;;
14849;SDS011;7517;48.400;11.770;2023-07-13T13:53:13;0.77;;;0.77;;
14849;SDS011;7517;48.400;11.770;2023-07-13T13:55:40;1.23;;;1.00;;
14849;SDS011;7517;48.400;11.770;2023-07-13T13:58:08;2.40;;;1.00;;
14849;SDS011;7517;48.400;11.770;2023-07-13T14:00:36;2.60;;;0.98;;
14849;SDS011;7517;48.400;11.770;2023-07-13T14:03:05;1.20;;;1.00;;
14849;SDS011;7517;48.400;11.770;2023-07-13T14:05:43;1.55;;;0.80;;
14849;SDS011;7517;48.400;11.770;2023-07-13T14:08:12;0.88;;;0.80;;
14849;SDS011;7517;48.400;11.770;2023-07-13T14:10:41;2.05;;;1.02;;
14849;SDS011;7517;48.400;11.770;2023-07-13T14:13:14;1.15;;;1.00;;
14849;SDS011;7517;48.400;11.770;2023-07-13T14:15:45;2.00;;;1.10;;
14849;SDS011;7517;48.400;11.770;2023-07-13T14:18:17;1.20;;;0.95;;
14849;SDS011;7517;48.400;11.770;2023-07-13T14:20:44;1.48;;;1.15;;
14849;SDS011;7517;48.400;11.770;2023-07-13T14:23:12;1.60;;;1.00;;
14849;SDS011;7517;48.400;11.770;2023-07-13T14:25:41;1.05;;;0.90;;
14849;SDS011;7517;48.400;11.770;2023-07-13T14:28:14;3.97;;;0.77;;
14849;SDS011;7517;48.400;11.770;2023-07-13T14:30:47;1.60;;;1.10;;
14849;SDS011;7517;48.400;11.770;2023-07-13T14:33:17;0.98;;;0.98;;
14849;SDS011;7517;48.400;11.770;2023-07-13T14:35:44;1.85;;;0.90;;
14849;SDS011;7517;48.400;11.770;2023-07-13T14:38:12;2.00;;;1.00;;
14849;SDS011;7517;48.400;11.770;2023-07-13T14:40:44;1.05;;;0.80;;
14849;SDS011;7517;48.400;11.770;2023-07-13T14:43:12;2.97;;;1.20;;
14849;SDS011;7517;48.400;11.770;2023-07-13T14:45:41;1.00;;;0.90;;
14849;SDS011;7517;48.400;11.770;2023-07-13T14:48:13;1.00;;;0.85;;
14849;SDS011;7517;48.400;11.770;2023-07-13T14:50:46;1.03;;;0.73;;
14849;SDS011;7517;48.400;11.770;2023-07-13T14:53:17;0.88;;;0.77;;
14849;SDS011;7517;48.400;11.770;2023-07-13T14:55:44;0.93;;;0.77;;
14849;SDS011;7517;48.400;11.770;2023-07-13T14:58:11;1.23;;;1.05;;
14849;SDS011;7517;48.400;11.770;2023-07-13T15:00:38;1.08;;;0.80;;
14849;SDS011;7517;48.400;11.770;2023-07-13T15:03:08;0.77;;;0.73;;
14849;SDS011;7517;48.400;11.770;2023-07-13T15:05:47;1.45;;;1.00;;
14849;SDS011;7517;48.400;11.770;2023-07-13T15:08:15;2.05;;;1.45;;
14849;SDS011;7517;48.400;11.770;2023-07-13T15:10:43;1.38;;;1.27;;